sensor_id;sensor_type;location;lat;lon;timestamp;temperature;humidity
47791;DHT22;33547;49.044;1.156;2023-05-07T00:00:33;15.50;99.90
47791;DHT22;33547;49.044;1.156;2023-05-07T00:02:59;15.50;99.90
47791;DHT22;33547;49.044;1.156;2023-05-07T00:05:25;15.50;99.90
47791;DHT22;33547;49.044;1.156;2023-05-07T00:07:51;15.50;99.90
47791;DHT22;33547;49.044;1.156;2023-05-07T00:10:18;15.50;99.90
47791;DHT22;33547;49.044;1.156;2023-05-07T00:12:44;15.60;99.90
47791;DHT22;33547;49.044;1.156;2023-05-07T00:15:10;15.50;99.90
47791;DHT22;33547;49.044;1.156;2023-05-07T00:17:36;15.60;99.90
47791;DHT22;33547;49.044;1.156;2023-05-07T00:20:04;15.50;99.90
47791;DHT22;33547;49.044;1.156;2023-05-07T00:22:31;15.50;99.90
47791;DHT22;33547;49.044;1.156;2023-05-07T00:24:58;15.50;99.90
47791;DHT22;33547;49.044;1.156;2023-05-07T00:27:24;15.40;99.90
47791;DHT22;33547;49.044;1.156;2023-05-07T00:29:50;15.40;99.90
47791;DHT22;33547;49.044;1.156;2023-05-07T00:32:16;15.50;99.90
47791;DHT22;33547;49.044;1.156;2023-05-07T00:34:43;15.50;99.90
47791;DHT22;33547;49.044;1.156;2023-05-07T00:37:09;15.50;99.90
47791;DHT22;33547;49.044;1.156;2023-05-07T00:39:35;15.50;99.90
47791;DHT22;33547;49.044;1.156;2023-05-07T00:42:01;15.50;99.90
47791;DHT22;33547;49.044;1.156;2023-05-07T00:44:28;15.50;99.90
47791;DHT22;33547;49.044;1.156;2023-05-07T00:46:56;15.50;99.90
47791;DHT22;33547;49.044;1.156;2023-05-07T00:49:25;15.40;99.90
47791;DHT22;33547;49.044;1.156;2023-05-07T00:52:01;15.40;99.90
47791;DHT22;33547;49.044;1.156;2023-05-07T00:54:27;15.30;99.90
47791;DHT22;33547;49.044;1.156;2023-05-07T00:56:54;15.30;99.90
47791;DHT22;33547;49.044;1.156;2023-05-07T00:59:20;15.30;99.90
47791;DHT22;33547;49.044;1.156;2023-05-07T01:01:46;15.40;99.90
47791;DHT22;33547;49.044;1.156;2023-05-07T01:04:12;15.30;99.90
47791;DHT22;33547;49.044;1.156;2023-05-07T01:06:38;15.30;99.90
47791;DHT22;33547;49.044;1.156;2023-05-07T01:09:04;15.30;99.90
47791;DHT22;33547;49.044;1.156;2023-05-07T01:11:30;15.30;99.90
47791;DHT22;33547;49.044;1.156;2023-05-07T01:13:58;15.30;99.90
47791;DHT22;33547;49.044;1.156;2023-05-07T01:16:24;15.30;99.90
47791;DHT22;33547;49.044;1.156;2023-05-07T01:18:50;15.30;99.90
47791;DHT22;33547;49.044;1.156;2023-05-07T01:21:17;15.30;99.90
47791;DHT22;33547;49.044;1.156;2023-05-07T01:23:44;15.30;99.90
47791;DHT22;33547;49.044;1.156;2023-05-07T01:26:11;15.20;99.90
47791;DHT22;33547;49.044;1.156;2023-05-07T01:28:37;15.10;99.90
47791;DHT22;33547;49.044;1.156;2023-05-07T01:31:03;15.20;99.90
47791;DHT22;33547;49.044;1.156;2023-05-07T01:33:34;15.20;99.90
47791;DHT22;33547;49.044;1.156;2023-05-07T01:36:00;15.20;99.90
47791;DHT22;33547;49.044;1.156;2023-05-07T01:38:29;15.20;99.90
47791;DHT22;33547;49.044;1.156;2023-05-07T01:40:55;15.20;99.90
47791;DHT22;33547;49.044;1.156;2023-05-07T01:43:21;15.20;99.90
47791;DHT22;33547;49.044;1.156;2023-05-07T01:45:48;15.20;99.90
47791;DHT22;33547;49.044;1.156;2023-05-07T01:48:15;15.20;99.90
47791;DHT22;33547;49.044;1.156;2023-05-07T01:50:42;15.20;99.90
47791;DHT22;33547;49.044;1.156;2023-05-07T01:53:08;15.20;99.90
47791;DHT22;33547;49.044;1.156;2023-05-07T01:55:34;15.20;99.90
47791;DHT22;33547;49.044;1.156;2023-05-07T01:58:02;15.20;99.90
47791;DHT22;33547;49.044;1.156;2023-05-07T02:00:28;15.20;99.90
47791;DHT22;33547;49.044;1.156;2023-05-07T02:02:54;15.20;99.90
47791;DHT22;33547;49.044;1.156;2023-05-07T02:05:20;15.20;99.90
47791;DHT22;33547;49.044;1.156;2023-05-07T02:07:46;15.20;99.90
47791;DHT22;33547;49.044;1.156;2023-05-07T02:10:12;15.10;99.90
47791;DHT22;33547;49.044;1.156;2023-05-07T02:12:37;15.10;99.90
47791;DHT22;33547;49.044;1.156;2023-05-07T02:15:03;15.10;99.90
47791;DHT22;33547;49.044;1.156;2023-05-07T02:17:31;15.10;99.90
47791;DHT22;33547;49.044;1.156;2023-05-07T02:19:58;15.10;99.90
47791;DHT22;33547;49.044;1.156;2023-05-07T02:22:24;15.00;99.90
47791;DHT22;33547;49.044;1.156;2023-05-07T02:24:50;15.00;99.90
47791;DHT22;33547;49.044;1.156;2023-05-07T02:27:16;15.10;99.90
47791;DHT22;33547;49.044;1.156;2023-05-07T02:29:42;15.10;99.90
47791;DHT22;33547;49.044;1.156;2023-05-07T02:32:08;15.20;99.90
47791;DHT22;33547;49.044;1.156;2023-05-07T02:34:33;15.20;99.90
47791;DHT22;33547;49.044;1.156;2023-05-07T02:36:59;15.20;99.90
47791;DHT22;33547;49.044;1.156;2023-05-07T02:39:25;15.10;99.90
47791;DHT22;33547;49.044;1.156;2023-05-07T02:41:51;15.20;99.90
47791;DHT22;33547;49.044;1.156;2023-05-07T02:44:16;15.30;99.90
47791;DHT22;33547;49.044;1.156;2023-05-07T02:46:42;15.20;99.90
47791;DHT22;33547;49.044;1.156;2023-05-07T02:49:08;15.20;99.90
47791;DHT22;33547;49.044;1.156;2023-05-07T02:51:34;15.30;99.90
47791;DHT22;33547;49.044;1.156;2023-05-07T02:53:59;15.30;99.90
47791;DHT22;33547;49.044;1.156;2023-05-07T02:56:26;15.30;99.90
47791;DHT22;33547;49.044;1.156;2023-05-07T02:58:52;15.30;99.90
47791;DHT22;33547;49.044;1.156;2023-05-07T03:01:18;15.40;99.90
47791;DHT22;33547;49.044;1.156;2023-05-07T03:03:44;15.40;99.90
47791;DHT22;33547;49.044;1.156;2023-05-07T03:06:10;15.30;99.90
47791;DHT22;33547;49.044;1.156;2023-05-07T03:08:35;15.40;99.90
47791;DHT22;33547;49.044;1.156;2023-05-07T03:11:02;15.40;99.90
47791;DHT22;33547;49.044;1.156;2023-05-07T03:13:28;15.40;99.90
47791;DHT22;33547;49.044;1.156;2023-05-07T03:15:53;15.40;99.90
47791;DHT22;33547;49.044;1.156;2023-05-07T03:18:19;15.40;99.90
47791;DHT22;33547;49.044;1.156;2023-05-07T03:20:47;15.40;99.90
47791;DHT22;33547;49.044;1.156;2023-05-07T03:23:13;15.30;99.90
47791;DHT22;33547;49.044;1.156;2023-05-07T03:25:39;15.40;99.90
47791;DHT22;33547;49.044;1.156;2023-05-07T03:28:05;15.30;99.90
47791;DHT22;33547;49.044;1.156;2023-05-07T03:30:31;15.30;99.90
47791;DHT22;33547;49.044;1.156;2023-05-07T03:32:56;15.40;99.90
47791;DHT22;33547;49.044;1.156;2023-05-07T03:35:22;15.40;99.90
47791;DHT22;33547;49.044;1.156;2023-05-07T03:37:48;15.40;99.90
47791;DHT22;33547;49.044;1.156;2023-05-07T03:40:14;15.40;99.90
47791;DHT22;33547;49.044;1.156;2023-05-07T03:42:40;15.40;99.90
47791;DHT22;33547;49.044;1.156;2023-05-07T03:45:06;15.40;99.90
47791;DHT22;33547;49.044;1.156;2023-05-07T03:47:33;15.40;99.90
47791;DHT22;33547;49.044;1.156;2023-05-07T03:49:58;15.50;99.90
47791;DHT22;33547;49.044;1.156;2023-05-07T03:52:24;15.50;99.90
47791;DHT22;33547;49.044;1.156;2023-05-07T03:54:52;15.40;99.90
47791;DHT22;33547;49.044;1.156;2023-05-07T03:57:19;15.40;99.90
47791;DHT22;33547;49.044;1.156;2023-05-07T03:59:45;15.40;99.90
47791;DHT22;33547;49.044;1.156;2023-05-07T04:02:11;15.50;99.90
47791;DHT22;33547;49.044;1.156;2023-05-07T04:04:36;15.50;99.90
47791;DHT22;33547;49.044;1.156;2023-05-07T04:07:02;15.50;99.90
47791;DHT22;33547;49.044;1.156;2023-05-07T04:09:28;15.50;99.90
47791;DHT22;33547;49.044;1.156;2023-05-07T04:11:54;15.50;99.90
47791;DHT22;33547;49.044;1.156;2023-05-07T04:14:20;15.50;99.90
47791;DHT22;33547;49.044;1.156;2023-05-07T04:16:45;15.50;99.90
47791;DHT22;33547;49.044;1.156;2023-05-07T04:19:11;15.50;99.90
47791;DHT22;33547;49.044;1.156;2023-05-07T04:21:37;15.50;99.90
47791;DHT22;33547;49.044;1.156;2023-05-07T04:24:03;15.50;99.90
47791;DHT22;33547;49.044;1.156;2023-05-07T04:26:29;15.60;99.90
47791;DHT22;33547;49.044;1.156;2023-05-07T04:28:55;15.60;99.90
47791;DHT22;33547;49.044;1.156;2023-05-07T04:31:22;15.60;99.90
47791;DHT22;33547;49.044;1.156;2023-05-07T04:33:47;15.60;99.90
47791;DHT22;33547;49.044;1.156;2023-05-07T04:36:13;15.60;99.90
47791;DHT22;33547;49.044;1.156;2023-05-07T04:38:39;15.60;99.90
47791;DHT22;33547;49.044;1.156;2023-05-07T04:41:06;15.60;99.90
47791;DHT22;33547;49.044;1.156;2023-05-07T04:43:32;15.60;99.90
47791;DHT22;33547;49.044;1.156;2023-05-07T04:45:58;15.60;99.90
47791;DHT22;33547;49.044;1.156;2023-05-07T04:48:24;15.50;99.90
47791;DHT22;33547;49.044;1.156;2023-05-07T04:50:50;15.50;99.90
47791;DHT22;33547;49.044;1.156;2023-05-07T04:53:16;15.50;99.90
47791;DHT22;33547;49.044;1.156;2023-05-07T04:55:43;15.50;99.90
47791;DHT22;33547;49.044;1.156;2023-05-07T04:58:09;15.50;99.90
47791;DHT22;33547;49.044;1.156;2023-05-07T05:00:35;15.50;99.90
47791;DHT22;33547;49.044;1.156;2023-05-07T05:03:00;15.50;99.90
47791;DHT22;33547;49.044;1.156;2023-05-07T05:05:26;15.50;99.90
47791;DHT22;33547;49.044;1.156;2023-05-07T05:07:52;15.50;99.90
47791;DHT22;33547;49.044;1.156;2023-05-07T05:10:18;15.50;99.90
47791;DHT22;33547;49.044;1.156;2023-05-07T05:12:44;15.60;99.90
47791;DHT22;33547;49.044;1.156;2023-05-07T05:15:12;15.50;99.90
47791;DHT22;33547;49.044;1.156;2023-05-07T05:17:38;15.50;99.90
47791;DHT22;33547;49.044;1.156;2023-05-07T05:20:05;15.60;99.90
47791;DHT22;33547;49.044;1.156;2023-05-07T05:22:32;15.60;99.90
47791;DHT22;33547;49.044;1.156;2023-05-07T05:24:58;15.60;99.90
47791;DHT22;33547;49.044;1.156;2023-05-07T05:27:24;15.70;99.90
47791;DHT22;33547;49.044;1.156;2023-05-07T05:29:50;15.70;99.90
47791;DHT22;33547;49.044;1.156;2023-05-07T05:32:15;15.70;99.90
47791;DHT22;33547;49.044;1.156;2023-05-07T05:34:41;15.70;99.90
47791;DHT22;33547;49.044;1.156;2023-05-07T05:37:07;15.70;99.90
47791;DHT22;33547;49.044;1.156;2023-05-07T05:39:33;15.80;99.90
47791;DHT22;33547;49.044;1.156;2023-05-07T05:41:59;15.80;99.90
47791;DHT22;33547;49.044;1.156;2023-05-07T05:44:25;15.70;99.90
47791;DHT22;33547;49.044;1.156;2023-05-07T05:46:51;15.80;99.90
47791;DHT22;33547;49.044;1.156;2023-05-07T05:49:16;15.70;99.90
47791;DHT22;33547;49.044;1.156;2023-05-07T05:51:43;15.70;99.90
47791;DHT22;33547;49.044;1.156;2023-05-07T05:54:09;15.80;99.90
47791;DHT22;33547;49.044;1.156;2023-05-07T05:56:34;15.70;99.90
47791;DHT22;33547;49.044;1.156;2023-05-07T05:59:01;15.80;99.90
47791;DHT22;33547;49.044;1.156;2023-05-07T06:01:27;15.90;99.90
47791;DHT22;33547;49.044;1.156;2023-05-07T06:03:53;16.00;99.90
47791;DHT22;33547;49.044;1.156;2023-05-07T06:06:19;16.00;99.90
47791;DHT22;33547;49.044;1.156;2023-05-07T06:08:44;16.10;99.90
47791;DHT22;33547;49.044;1.156;2023-05-07T06:11:11;16.10;99.90
47791;DHT22;33547;49.044;1.156;2023-05-07T06:13:36;16.10;99.90
47791;DHT22;33547;49.044;1.156;2023-05-07T06:16:02;16.10;99.90
47791;DHT22;33547;49.044;1.156;2023-05-07T06:18:28;16.20;99.90
47791;DHT22;33547;49.044;1.156;2023-05-07T06:20:54;16.20;99.90
47791;DHT22;33547;49.044;1.156;2023-05-07T06:23:20;16.20;99.90
47791;DHT22;33547;49.044;1.156;2023-05-07T06:25:49;16.30;99.90
47791;DHT22;33547;49.044;1.156;2023-05-07T06:28:16;16.30;99.90
47791;DHT22;33547;49.044;1.156;2023-05-07T06:30:42;16.30;99.90
47791;DHT22;33547;49.044;1.156;2023-05-07T06:33:07;16.40;99.90
47791;DHT22;33547;49.044;1.156;2023-05-07T06:35:33;16.40;99.90
47791;DHT22;33547;49.044;1.156;2023-05-07T06:38:00;16.60;99.90
47791;DHT22;33547;49.044;1.156;2023-05-07T06:40:26;16.50;99.90
47791;DHT22;33547;49.044;1.156;2023-05-07T06:42:52;16.60;99.90
47791;DHT22;33547;49.044;1.156;2023-05-07T06:45:19;16.60;99.90
47791;DHT22;33547;49.044;1.156;2023-05-07T06:47:45;16.50;99.90
47791;DHT22;33547;49.044;1.156;2023-05-07T06:50:11;16.60;99.90
47791;DHT22;33547;49.044;1.156;2023-05-07T06:52:37;16.70;99.90
47791;DHT22;33547;49.044;1.156;2023-05-07T06:55:03;16.80;99.90
47791;DHT22;33547;49.044;1.156;2023-05-07T06:57:29;16.80;99.90
47791;DHT22;33547;49.044;1.156;2023-05-07T06:59:54;16.80;99.90
47791;DHT22;33547;49.044;1.156;2023-05-07T07:02:20;17.00;99.90
47791;DHT22;33547;49.044;1.156;2023-05-07T07:04:46;17.10;99.90
47791;DHT22;33547;49.044;1.156;2023-05-07T07:07:12;17.00;99.90
47791;DHT22;33547;49.044;1.156;2023-05-07T07:09:37;17.10;99.90
47791;DHT22;33547;49.044;1.156;2023-05-07T07:12:03;17.10;99.90
47791;DHT22;33547;49.044;1.156;2023-05-07T07:14:29;17.20;99.90
47791;DHT22;33547;49.044;1.156;2023-05-07T07:16:55;17.40;99.90
47791;DHT22;33547;49.044;1.156;2023-05-07T07:19:21;17.40;99.90
47791;DHT22;33547;49.044;1.156;2023-05-07T07:21:47;17.40;99.90
47791;DHT22;33547;49.044;1.156;2023-05-07T07:24:13;17.50;99.90
47791;DHT22;33547;49.044;1.156;2023-05-07T07:26:44;17.60;99.90
47791;DHT22;33547;49.044;1.156;2023-05-07T07:29:10;17.70;99.90
47791;DHT22;33547;49.044;1.156;2023-05-07T07:31:36;17.70;99.90
47791;DHT22;33547;49.044;1.156;2023-05-07T07:34:02;17.80;99.90
47791;DHT22;33547;49.044;1.156;2023-05-07T07:36:27;18.00;99.90
47791;DHT22;33547;49.044;1.156;2023-05-07T07:38:54;17.90;99.90
47791;DHT22;33547;49.044;1.156;2023-05-07T07:41:20;17.80;99.90
47791;DHT22;33547;49.044;1.156;2023-05-07T07:43:46;18.00;99.90
47791;DHT22;33547;49.044;1.156;2023-05-07T07:46:12;17.80;99.90
47791;DHT22;33547;49.044;1.156;2023-05-07T07:48:38;17.90;99.90
47791;DHT22;33547;49.044;1.156;2023-05-07T07:51:04;18.00;99.90
47791;DHT22;33547;49.044;1.156;2023-05-07T07:53:30;17.90;99.90
47791;DHT22;33547;49.044;1.156;2023-05-07T07:55:56;18.00;99.90
47791;DHT22;33547;49.044;1.156;2023-05-07T07:58:21;18.00;99.90
47791;DHT22;33547;49.044;1.156;2023-05-07T08:00:48;17.90;99.90
47791;DHT22;33547;49.044;1.156;2023-05-07T08:03:14;18.00;99.90
47791;DHT22;33547;49.044;1.156;2023-05-07T08:05:42;18.10;99.90
47791;DHT22;33547;49.044;1.156;2023-05-07T08:08:08;18.20;99.90
47791;DHT22;33547;49.044;1.156;2023-05-07T08:10:34;18.10;99.90
47791;DHT22;33547;49.044;1.156;2023-05-07T08:13:00;18.20;99.90
47791;DHT22;33547;49.044;1.156;2023-05-07T08:15:26;18.20;99.90
47791;DHT22;33547;49.044;1.156;2023-05-07T08:17:52;18.20;99.90
47791;DHT22;33547;49.044;1.156;2023-05-07T08:20:18;18.20;99.90
47791;DHT22;33547;49.044;1.156;2023-05-07T08:22:43;18.10;99.90
47791;DHT22;33547;49.044;1.156;2023-05-07T08:25:09;18.30;99.90
47791;DHT22;33547;49.044;1.156;2023-05-07T08:27:35;18.20;99.90
47791;DHT22;33547;49.044;1.156;2023-05-07T08:30:01;17.90;99.90
47791;DHT22;33547;49.044;1.156;2023-05-07T08:32:27;17.90;99.90
47791;DHT22;33547;49.044;1.156;2023-05-07T08:34:53;17.90;99.90
47791;DHT22;33547;49.044;1.156;2023-05-07T08:37:19;17.80;99.90
47791;DHT22;33547;49.044;1.156;2023-05-07T08:39:45;17.90;99.90
47791;DHT22;33547;49.044;1.156;2023-05-07T08:42:12;18.10;99.90
47791;DHT22;33547;49.044;1.156;2023-05-07T08:44:39;18.20;99.90
47791;DHT22;33547;49.044;1.156;2023-05-07T08:47:07;18.40;99.90
47791;DHT22;33547;49.044;1.156;2023-05-07T08:49:34;18.80;99.90
47791;DHT22;33547;49.044;1.156;2023-05-07T08:52:00;19.00;99.90
47791;DHT22;33547;49.044;1.156;2023-05-07T08:54:27;18.80;99.90
47791;DHT22;33547;49.044;1.156;2023-05-07T08:56:54;18.70;99.90
47791;DHT22;33547;49.044;1.156;2023-05-07T08:59:20;18.70;99.90
47791;DHT22;33547;49.044;1.156;2023-05-07T09:01:46;18.70;99.90
47791;DHT22;33547;49.044;1.156;2023-05-07T09:04:12;18.80;99.90
47791;DHT22;33547;49.044;1.156;2023-05-07T09:06:38;18.80;99.90
47791;DHT22;33547;49.044;1.156;2023-05-07T09:09:07;19.00;99.90
47791;DHT22;33547;49.044;1.156;2023-05-07T09:11:33;19.10;99.90
47791;DHT22;33547;49.044;1.156;2023-05-07T09:13:59;18.90;99.90
47791;DHT22;33547;49.044;1.156;2023-05-07T09:16:29;18.80;99.90
47791;DHT22;33547;49.044;1.156;2023-05-07T09:18:58;18.50;99.90
47791;DHT22;33547;49.044;1.156;2023-05-07T09:21:24;18.40;99.90
47791;DHT22;33547;49.044;1.156;2023-05-07T09:23:52;18.40;99.90
47791;DHT22;33547;49.044;1.156;2023-05-07T09:26:21;18.40;99.90
47791;DHT22;33547;49.044;1.156;2023-05-07T09:28:47;18.30;99.90
47791;DHT22;33547;49.044;1.156;2023-05-07T09:31:13;18.20;99.90
47791;DHT22;33547;49.044;1.156;2023-05-07T09:33:39;18.20;99.90
47791;DHT22;33547;49.044;1.156;2023-05-07T09:36:06;18.20;99.90
47791;DHT22;33547;49.044;1.156;2023-05-07T09:38:33;18.20;99.90
47791;DHT22;33547;49.044;1.156;2023-05-07T09:41:03;17.90;99.90
47791;DHT22;33547;49.044;1.156;2023-05-07T09:43:38;18.00;99.90
47791;DHT22;33547;49.044;1.156;2023-05-07T09:46:12;18.10;99.90
47791;DHT22;33547;49.044;1.156;2023-05-07T09:48:42;18.00;99.90
47791;DHT22;33547;49.044;1.156;2023-05-07T09:51:32;18.00;99.90
47791;DHT22;33547;49.044;1.156;2023-05-07T09:54:03;18.00;99.90
47791;DHT22;33547;49.044;1.156;2023-05-07T09:56:30;18.10;99.90
47791;DHT22;33547;49.044;1.156;2023-05-07T09:59:00;18.30;99.90
47791;DHT22;33547;49.044;1.156;2023-05-07T10:01:27;18.50;99.90
47791;DHT22;33547;49.044;1.156;2023-05-07T10:03:53;18.60;99.90
47791;DHT22;33547;49.044;1.156;2023-05-07T10:06:23;18.80;99.90
47791;DHT22;33547;49.044;1.156;2023-05-07T10:08:51;19.00;99.90
47791;DHT22;33547;49.044;1.156;2023-05-07T10:11:17;19.10;99.90
47791;DHT22;33547;49.044;1.156;2023-05-07T10:13:43;19.00;99.90
47791;DHT22;33547;49.044;1.156;2023-05-07T10:16:10;19.20;99.90
47791;DHT22;33547;49.044;1.156;2023-05-07T10:18:37;19.50;99.90
47791;DHT22;33547;49.044;1.156;2023-05-07T10:21:08;19.50;99.90
47791;DHT22;33547;49.044;1.156;2023-05-07T10:23:37;19.30;99.90
47791;DHT22;33547;49.044;1.156;2023-05-07T10:26:05;19.40;99.90
47791;DHT22;33547;49.044;1.156;2023-05-07T10:28:36;19.10;99.90
47791;DHT22;33547;49.044;1.156;2023-05-07T10:31:36;19.20;99.90
47791;DHT22;33547;49.044;1.156;2023-05-07T10:34:14;19.10;99.90
47791;DHT22;33547;49.044;1.156;2023-05-07T10:36:43;18.90;99.90
47791;DHT22;33547;49.044;1.156;2023-05-07T10:39:10;18.80;99.90
47791;DHT22;33547;49.044;1.156;2023-05-07T10:41:36;18.60;99.90
47791;DHT22;33547;49.044;1.156;2023-05-07T10:44:02;18.60;99.90
47791;DHT22;33547;49.044;1.156;2023-05-07T10:46:28;18.50;99.90
47791;DHT22;33547;49.044;1.156;2023-05-07T10:51:27;18.30;99.90
47791;DHT22;33547;49.044;1.156;2023-05-07T10:56:36;18.40;99.90
47791;DHT22;33547;49.044;1.156;2023-05-07T11:01:55;18.90;99.90
47791;DHT22;33547;49.044;1.156;2023-05-07T11:04:23;18.90;99.90
47791;DHT22;33547;49.044;1.156;2023-05-07T11:15:09;18.50;99.90
47791;DHT22;33547;49.044;1.156;2023-05-07T11:17:56;18.30;99.90
47791;DHT22;33547;49.044;1.156;2023-05-07T11:20:55;18.40;99.90
47791;DHT22;33547;49.044;1.156;2023-05-07T11:26:14;18.60;99.90
47791;DHT22;33547;49.044;1.156;2023-05-07T11:28:41;18.60;99.90
47791;DHT22;33547;49.044;1.156;2023-05-07T11:31:09;18.70;99.90
47791;DHT22;33547;49.044;1.156;2023-05-07T11:33:37;18.90;99.90
47791;DHT22;33547;49.044;1.156;2023-05-07T11:36:04;19.40;99.90
47791;DHT22;33547;49.044;1.156;2023-05-07T11:38:34;20.20;99.90
47791;DHT22;33547;49.044;1.156;2023-05-07T11:41:00;20.10;99.90
47791;DHT22;33547;49.044;1.156;2023-05-07T11:43:28;19.80;99.90
47791;DHT22;33547;49.044;1.156;2023-05-07T11:45:53;19.30;99.90
47791;DHT22;33547;49.044;1.156;2023-05-07T11:48:21;19.10;99.90
47791;DHT22;33547;49.044;1.156;2023-05-07T11:50:59;19.00;99.90
47791;DHT22;33547;49.044;1.156;2023-05-07T11:53:28;19.00;99.90
47791;DHT22;33547;49.044;1.156;2023-05-07T11:56:06;19.00;99.90
47791;DHT22;33547;49.044;1.156;2023-05-07T11:58:36;19.50;99.90
47791;DHT22;33547;49.044;1.156;2023-05-07T12:01:03;20.70;99.90
47791;DHT22;33547;49.044;1.156;2023-05-07T12:03:29;20.80;99.90
47791;DHT22;33547;49.044;1.156;2023-05-07T12:05:55;20.80;99.90
47791;DHT22;33547;49.044;1.156;2023-05-07T12:08:21;20.60;99.90
47791;DHT22;33547;49.044;1.156;2023-05-07T12:10:49;20.30;99.90
47791;DHT22;33547;49.044;1.156;2023-05-07T12:13:17;19.90;99.90
47791;DHT22;33547;49.044;1.156;2023-05-07T12:15:51;19.70;99.90
47791;DHT22;33547;49.044;1.156;2023-05-07T12:18:18;20.30;99.90
47791;DHT22;33547;49.044;1.156;2023-05-07T12:20:44;21.30;99.90
47791;DHT22;33547;49.044;1.156;2023-05-07T12:23:11;20.90;99.90
47791;DHT22;33547;49.044;1.156;2023-05-07T12:25:41;21.40;99.90
47791;DHT22;33547;49.044;1.156;2023-05-07T12:28:18;21.20;99.90
47791;DHT22;33547;49.044;1.156;2023-05-07T12:30:47;21.40;99.90
47791;DHT22;33547;49.044;1.156;2023-05-07T12:33:17;20.90;99.90
47791;DHT22;33547;49.044;1.156;2023-05-07T12:35:44;20.50;99.90
47791;DHT22;33547;49.044;1.156;2023-05-07T12:38:12;20.60;99.90
47791;DHT22;33547;49.044;1.156;2023-05-07T12:40:49;20.80;99.90
47791;DHT22;33547;49.044;1.156;2023-05-07T12:43:21;20.60;99.90
47791;DHT22;33547;49.044;1.156;2023-05-07T12:45:51;21.00;99.90
47791;DHT22;33547;49.044;1.156;2023-05-07T12:48:19;21.00;99.90
47791;DHT22;33547;49.044;1.156;2023-05-07T12:50:45;21.40;99.90
47791;DHT22;33547;49.044;1.156;2023-05-07T12:53:15;21.40;99.90
47791;DHT22;33547;49.044;1.156;2023-05-07T12:55:46;21.50;99.90
47791;DHT22;33547;49.044;1.156;2023-05-07T12:58:20;21.30;99.90
47791;DHT22;33547;49.044;1.156;2023-05-07T13:00:58;21.40;99.90
47791;DHT22;33547;49.044;1.156;2023-05-07T13:03:30;21.40;99.90
47791;DHT22;33547;49.044;1.156;2023-05-07T13:06:05;21.60;99.90
47791;DHT22;33547;49.044;1.156;2023-05-07T13:08:38;21.50;99.90
47791;DHT22;33547;49.044;1.156;2023-05-07T13:11:08;21.10;99.90
47791;DHT22;33547;49.044;1.156;2023-05-07T13:13:37;21.30;99.90
47791;DHT22;33547;49.044;1.156;2023-05-07T13:16:05;21.40;99.90
47791;DHT22;33547;49.044;1.156;2023-05-07T13:18:32;21.10;99.90
47791;DHT22;33547;49.044;1.156;2023-05-07T13:20:59;20.90;99.90
47791;DHT22;33547;49.044;1.156;2023-05-07T13:23:26;20.40;99.90
47791;DHT22;33547;49.044;1.156;2023-05-07T13:25:52;20.20;99.90
47791;DHT22;33547;49.044;1.156;2023-05-07T13:28:19;20.00;99.90
47791;DHT22;33547;49.044;1.156;2023-05-07T13:30:46;20.10;99.90
47791;DHT22;33547;49.044;1.156;2023-05-07T13:33:12;19.90;99.90
47791;DHT22;33547;49.044;1.156;2023-05-07T13:35:38;20.10;99.90
47791;DHT22;33547;49.044;1.156;2023-05-07T13:38:04;20.10;99.90
47791;DHT22;33547;49.044;1.156;2023-05-07T13:40:30;20.30;99.90
47791;DHT22;33547;49.044;1.156;2023-05-07T13:42:59;20.60;99.90
47791;DHT22;33547;49.044;1.156;2023-05-07T13:45:28;20.50;99.90
47791;DHT22;33547;49.044;1.156;2023-05-07T13:47:57;20.70;99.90
47791;DHT22;33547;49.044;1.156;2023-05-07T13:50:23;20.60;99.90
47791;DHT22;33547;49.044;1.156;2023-05-07T13:52:49;20.40;99.90
47791;DHT22;33547;49.044;1.156;2023-05-07T13:55:19;20.80;99.90
47791;DHT22;33547;49.044;1.156;2023-05-07T13:57:46;21.00;99.90
47791;DHT22;33547;49.044;1.156;2023-05-07T14:00:13;20.80;99.90
47791;DHT22;33547;49.044;1.156;2023-05-07T14:02:40;21.00;99.90
47791;DHT22;33547;49.044;1.156;2023-05-07T14:05:06;20.90;99.90
47791;DHT22;33547;49.044;1.156;2023-05-07T14:07:32;20.40;99.90
47791;DHT22;33547;49.044;1.156;2023-05-07T14:09:58;20.80;99.90
47791;DHT22;33547;49.044;1.156;2023-05-07T14:12:24;21.10;99.90
47791;DHT22;33547;49.044;1.156;2023-05-07T14:14:50;21.50;99.90
47791;DHT22;33547;49.044;1.156;2023-05-07T14:17:19;21.10;99.90
47791;DHT22;33547;49.044;1.156;2023-05-07T14:19:45;21.20;99.90
47791;DHT22;33547;49.044;1.156;2023-05-07T14:22:13;20.80;99.90
47791;DHT22;33547;49.044;1.156;2023-05-07T14:24:40;20.90;99.90
47791;DHT22;33547;49.044;1.156;2023-05-07T14:27:06;20.40;99.90
47791;DHT22;33547;49.044;1.156;2023-05-07T14:29:32;20.10;99.90
47791;DHT22;33547;49.044;1.156;2023-05-07T14:31:58;19.80;99.90
47791;DHT22;33547;49.044;1.156;2023-05-07T14:34:24;19.90;99.90
47791;DHT22;33547;49.044;1.156;2023-05-07T14:36:50;20.00;99.90
47791;DHT22;33547;49.044;1.156;2023-05-07T14:39:15;19.70;99.90
47791;DHT22;33547;49.044;1.156;2023-05-07T14:41:41;19.80;99.90
47791;DHT22;33547;49.044;1.156;2023-05-07T14:44:07;19.70;99.90
47791;DHT22;33547;49.044;1.156;2023-05-07T14:46:33;19.80;99.90
47791;DHT22;33547;49.044;1.156;2023-05-07T14:48:59;19.70;99.90
47791;DHT22;33547;49.044;1.156;2023-05-07T14:51:24;19.70;99.90
47791;DHT22;33547;49.044;1.156;2023-05-07T14:53:51;19.70;99.90
47791;DHT22;33547;49.044;1.156;2023-05-07T14:56:17;19.80;99.90
47791;DHT22;33547;49.044;1.156;2023-05-07T14:58:43;20.20;99.90
47791;DHT22;33547;49.044;1.156;2023-05-07T15:01:09;20.50;99.90
47791;DHT22;33547;49.044;1.156;2023-05-07T15:03:35;20.80;99.90
47791;DHT22;33547;49.044;1.156;2023-05-07T15:06:02;20.70;99.90
47791;DHT22;33547;49.044;1.156;2023-05-07T15:08:28;20.60;99.90
47791;DHT22;33547;49.044;1.156;2023-05-07T15:10:54;20.30;99.90
47791;DHT22;33547;49.044;1.156;2023-05-07T15:13:21;20.40;99.90
47791;DHT22;33547;49.044;1.156;2023-05-07T15:15:46;20.20;99.90
47791;DHT22;33547;49.044;1.156;2023-05-07T15:18:13;20.30;99.90
47791;DHT22;33547;49.044;1.156;2023-05-07T15:20:40;20.40;99.90
47791;DHT22;33547;49.044;1.156;2023-05-07T15:23:07;20.60;99.90
47791;DHT22;33547;49.044;1.156;2023-05-07T15:25:38;20.80;99.90
47791;DHT22;33547;49.044;1.156;2023-05-07T15:28:04;20.70;99.90
47791;DHT22;33547;49.044;1.156;2023-05-07T15:30:29;20.30;99.90
47791;DHT22;33547;49.044;1.156;2023-05-07T15:32:56;20.20;99.90
47791;DHT22;33547;49.044;1.156;2023-05-07T15:35:21;20.00;99.90
47791;DHT22;33547;49.044;1.156;2023-05-07T15:37:48;20.10;99.90
47791;DHT22;33547;49.044;1.156;2023-05-07T15:40:15;20.00;99.90
47791;DHT22;33547;49.044;1.156;2023-05-07T15:42:41;19.90;99.90
47791;DHT22;33547;49.044;1.156;2023-05-07T15:45:07;20.00;99.90
47791;DHT22;33547;49.044;1.156;2023-05-07T15:47:35;20.10;99.90